CALIFORNIA METAR OBSERVATIONS
*** Not a substitute for official aviation weather ***

METAR Decoder

California METARS via your cellphone - use these links:
http://www.ocflyingclub.com/metars.cfm
http://www.ocflyingclub.com/metar.cfm

KSNA 251400Z VRB03KT 7SM OVC011 14/11 A3006 RMK AO2 T01390111
 
Date: 14Z 25 APR 18

K9L2 251358Z AUTO 16003KT 10SM CLR 13/M10 A3003 RMK AO2 LTG DSNT S SLP152
     T01281103
KAAT 251355Z AUTO 00000KT 10SM CLR 03/00 A3016 RMK AO2 SLP196 T00280000
KACV 251401Z AUTO 00000KT 4SM BR OVC003 11/09 A3004 RMK AO2 T01110094
KAJO 251356Z AUTO 00000KT 4SM BR CLR 10/09 A3007 RMK AO2 SLP193 T01000094
     $
KAPC 251354Z 29003KT 7SM BKN010 07/06 A3005 RMK AO2 SLP168 T00720061
KAUN 251355Z AUTO 10004KT 10SM CLR 14/08 A3002 RMK AO1
KAVX 251351Z AUTO 00000KT M1/4SM FG VV001 09/ A3006 RMK AO2 SLP170 T0094 $
KBAB 251358Z AUTO 00000KT 10SM CLR 10/09 A3000 RMK AO2 SLP162 T00980086 $
KBAN 251352Z AUTO 00000KT 10SM CLR 00/M05 A3025 RMK AO2 SLP208 T00001050 $
KBFL 251354Z 00000KT 10SM CLR 19/07 A3000 RMK AO2 SLP153 T01940067
KBIH 251356Z AUTO 35003KT 10SM CLR 09/M01 A3012 RMK AO2 SLP163 T00941006
KBLH 251352Z AUTO 36007KT 10SM CLR 20/00 A2991 RMK AO2 SLP122 T02000000
KBLU 251352Z AUTO 09003KT 10SM CLR 13/M02 A3018 RMK AO2 SLP154 T01281017
KBUR 251353Z 08004KT 2 1/2SM BR OVC006 12/11 A3005 RMK AO2 SLP166 T01220111
     $
KBYS 251355Z AUTO 04006KT 10SM FEW210 18/M06 A3003 RMK AO2 SLP138 WND DATA
     ESTMD T01761064
KCCR 251353Z 20005KT 10SM CLR 11/08 A3005 RMK AO2 SLP161 T01060078
KCEC 251356Z AUTO 20005KT 6SM BR OVC003 10/09 A3006 RMK AO2 SLP180
     T01000094
KCIC 251350Z VRB05KT 25SM FEW120 12/08 A3002
KCMA 251355Z 18004KT 4SM HZ OVC007 12/09 A3007 RMK AO2 SLP191 T01220089
KCNO 251353Z 00000KT 6SM HZ FEW200 12/11 A3007 RMK AO2 SLP180 T01220111
KCQT 251347Z AUTO 13003KT 4SM HZ OVC013 14/11 A3006 RMK AO2 SLP177
     T01390106
KCRQ 251353Z AUTO 00000KT 6SM BR OVC008 13/11 A3005 RMK AO2 SLP174
     T01280106
KCVH 251355Z AUTO 00000KT 4SM BR OVC005 10/09 A3007 RMK A01
KCZZ 251352Z AUTO 05007KT 05/M01 A3005 RMK AO1 SLP159 T00501011
KDAG 251350Z AUTO 26012KT 10SM CLR 16/M03 A3001 RMK AO2 SLP142 T01611033
KDVO 251355Z AUTO 00000KT 9SM FEW011 07/06 A3006 RMK AO2
KE16 251355Z AUTO 15004KT 2 1/2SM BR OVC005 10/09 A3008 RMK AO2
KEDU 251400Z AUTO 00000KT 10SM CLR 08/07 A3001 RMK AO1
KEDW 251358Z 20005KT 80SM FEW200 SCT300 15/M09 A3002 RMK AO2A SLP148
     T01461088
KEED 251356Z AUTO 26005KT 10SM CLR 24/M05 A2996 RMK AO2 SLP113 T02391050
KF70 251355Z AUTO 00000KT 10SM CLR 09/05 A3007 RMK AO1
KFAT 251353Z 00000KT 10SM SCT090 OVC180 16/08 A2999 RMK AO2 SLP152 BINOVC
     MTNS OBSC HZ DSNT E-S T01560083
KFCH 251355Z AUTO 00000KT 10SM CLR 15/08 A2998 RMK A01
KFOT 251355Z AUTO 00000KT 1/4SM OVC002 10/10 A3004 RMK AO1
KFUL 251353Z 00000KT 6SM HZ OVC013 14/11 A3005 RMK AO2 SLP174 T01440111
KGOO 251350Z AUTO 00000KT 10SM CLR 15/05 A3007 RMK AO1
METAR KGXA 251355Z AUTO RMK AO2 SLPNO WND DATA ESTMD PWINO PNO TSNO $
KHAF 251400Z AUTO 00000KT 8SM OVC014 10/08 A3007 RMK AO2
KHHR 251353Z 10004KT 7SM OVC014 13/10 A3007 RMK AO2 SLP181 T01330100 $
KHJO 251353Z AUTO 00000KT 10SM CLR 14/10 A3000 RMK AO2 SLP158 T01390100
KHWD 251354Z 30006KT 10SM OVC013 12/07 A3006 RMK AO2 SLP188 T01220072
KIPL 251353Z AUTO 29003KT 10SM CLR 20/00 A2989 RMK AO2 SLP122 T02000000
KIZA 251355Z AUTO 00000KT 1/4SM FG OVC001 07/07 A3005 RMK AO2
KL18 251355Z AUTO 00000KT 1/2SM FG OVC002 10/10 A3006 RMK AO2
KL35 251355Z AUTO 00000KT 10SM CLR 01/M07 A3024 RMK AO2
KLAX 251353Z 07003KT 5SM HZ OVC013 14/10 A3006 RMK AO2 SLP179 T01390100
KLGB 251353Z 09003KT 9SM BKN014 14/11 A3006 RMK AO2 SLP178 T01440106
KLHM 251355Z AUTO 10003KT 10SM CLR 08/07 A2999 RMK AO1
KLPC 251356Z AUTO 00000KT 7SM 11/09 A3007 RMK AO2 SLP185 T01060094 $
KLVK 251353Z 27005KT 5SM BR OVC006 10/10 A3004 RMK AO2 SLP172 T01000100
KMAE 251353Z AUTO 28003KT 10SM CLR 11/09 A2999 RMK AO2 SLP154 T01110089
KMCC 251355Z AUTO 14005KT 8SM CLR 11/08 A3002 RMK AO2
KMCE 251353Z AUTO 32004KT 10SM CLR 13/07 A2998 RMK AO2 SLP152 T01280072 $
KMER 251345Z 32008KT 10SM SKC 12/09 A2999
KMHS 251356Z AUTO 00000KT 10SM CLR 04/01 A3011 RMK AO2 SLP201 T00440006 $
KMHV 251340Z AUTO 03003KT 9SM CLR 15/03 A3004 RMK A01
KMMH 251355Z AUTO 01003KT 10SM CLR 03/M01 A3028 RMK AO2 T00281014
KMOD 251353Z 35006KT 10SM CLR 12/09 A2999 RMK AO2 SLP157 T01170094
KMRY 251354Z 00000KT 9SM OVC009 11/09 A3007 RMK AO2 SLP195 T01110089
KMYF 251353Z 06004KT 3SM BR OVC008 13/11 A3006 RMK AO2 SLP178 T01280106
KMYV 251353Z AUTO 00000KT 10SM CLR 09/08 A3002 RMK AO2 SLP167 T00940083
KNFG 251355Z AUTO 02004KT 6SM BR OVC005 12/11 A3006 RMK AO2 SLP179
     T01170106
KNID 251356Z 00000KT 10SM FEW250 SCT300 15/01 A3002 RMK AO2 SLP150
     T01500006 PNO $
KNJK 251356Z 19004KT 10SM FEW250 21/M03 A2991 RMK AO2 SLP145 T02061033
KNKX 251355Z VRB03KT 4SM BR OVC007 14/11 A3006 RMK AO2 SLP175 T01440106 $
KNLC 251356Z 32005KT 9SM SCT170 BKN230 13/07 A3000 RMK AO2 SLP157 RH/66
     T01280072
KNRS 251356Z 29004KT 8SM OVC013 14/11 A3007 RMK AO2 SLP183 T01440106
METAR KNSI 251357Z 24005KT 6SM HZ OVC010 11/08 A3007 RMK AO2 SLP178
     T01110083 $
METAR KNTD 251358Z 06003KT 4SM HZ OVC009 13/10 A3007 RMK AO2 SLP185
     T01280100 CHINO N VISNO N $
KNUQ 251356Z 00000KT 9SM OVC014 12/09 A3006 RMK AO2 SLP182 T01220094
KNXF 251356Z AUTO 10004KT 5SM BR OVC006 13/11 A3007 RMK AO2 SLP267
     T01280111 $
METAR KNXP 251356Z AUTO 35003KT 8SM CLR 18/M11 A3007 RMK AO2 SLP148
     T01781106
KO69 251355Z AUTO 32003KT 7SM OVC007 09/09 A3006 RMK A01
KOAK 251353Z 28006KT 7SM OVC012 11/09 A3006 RMK AO2 SLP180 T01060089 $
KOKB 251402Z AUTO 12004KT 4SM BR OVC007 13/11 A3006 RMK AO2 T01280106
KONT 251353Z 00000KT 3SM BR FEW008 BKN180 BKN250 12/09 A3006 RMK AO2 SLP173
     VIS S-W 2 T01170094
KOVE 251353Z AUTO 00000KT 10SM CLR 13/09 A3002 RMK AO2 SLP167 T01280094
KOXR 251351Z 00000KT 6SM BR OVC007 12/09 A3007 RMK AO2 SLP182 T01170094
KPAO 251347Z 00000KT 8SM OVC014 A3006
KPMD 251353Z AUTO 26003KT 10SM CLR 17/M07 A3005 RMK AO2 SLP155 T01671072
KPOC 251347Z VRB04KT 6 SM CLR 10/07 A3009
KPRB 251353Z AUTO 00000KT 10SM CLR 07/06 A3005 RMK AO2 SLP174 T00670061
KPSP 251353Z 00000KT 10SM CLR 22/02 A2994 RMK AO2 SLP134 T02170022
KPTV 251356Z AUTO 16005KT 1 3/4SM HZ CLR 13/09 A3001 RMK AO2 VIS 1V5 SLP169
     T01330089
KPVF 251355Z AUTO 09006KT 10SM CLR 17/02 A3007 RMK AO1
KRAL 251353Z 00000KT 7SM SCT100 12/09 A3006 RMK AO2 SLP168 T01170094
KRBL 251354Z AUTO 31003KT 10SM CLR 12/08 A3002 RMK AO2 SLP161 T01170078
KRDD 251353Z 00000KT 10SM CLR 12/09 A3001 RMK AO2 SLP158 T01220094
KRHV 251347Z VRB04KT 5SM BR OVC015 12/10 A3004
KRIV 251358Z AUTO 00000KT 8SM CLR 10/08 A3006 RMK AO2 SLP174 T00990077
KRNM 251353Z AUTO 00000KT 10SM CLR 08/06 A3006 RMK AO2 SLP171 T00780061
KSAC 251353Z 18003KT 10SM CLR 09/08 A3000 RMK AO2 SLP159 T00940078
KSAN 251351Z 00000KT 7SM BKN011 OVC014 14/11 A3008 RMK AO2 SLP186
     T01390106
KSBA 251353Z 03003KT 7SM OVC005 11/10 A3006 RMK AO2 SLP180 T01110100 $
KSBD 251400Z 00000KT 7SM SCT200 13/04 A3007
KSBP 251356Z 00000KT 3SM BR OVC003 10/09 A3006 RMK AO2 SLP178 T01000094
KSCK 251355Z AUTO 02003KT 10SM CLR 11/09 A3000 RMK AO2 SLP160 T01060094
KSDB 251353Z AUTO 23006KT 10SM CLR 13/02 A3013 RMK AO2 SLP164 T01330017 $
KSDM 251353Z AUTO 00000KT 4SM BR OVC007 13/11 A3006 RMK AO2 SLP178
     T01280111
KSEE 251347Z 00000KT 3SM BR OVC008 13/11 A3006
KSFO 251356Z 25006KT 9SM FEW008 OVC014 12/07 A3006 RMK AO2 SLP178
     T01170072
KSIY 251353Z AUTO 00000KT 10SM CLR 07/02 A3010 RMK AO2 SLP190 T00720022
KSJC 251353Z 00000KT 4SM HZ FEW001 BKN010 OVC015 13/10 A3005 RMK AO2 SLP175
     T01330100
KSLI 251356Z 00000KT 7SM SCT014 13/10 A3006 RMK AO2A SLP182 T01330103
KSMF 251353Z 15004KT 10SM CLR 10/08 A2999 RMK AO2 SLP156 T01000078
KSMO 251351Z 13003KT 3SM HZ OVC010 13/10 A3007 RMK AO2 SLP180 T01280100 $
KSMX 251351Z 01003KT 4SM BR OVC003 11/09 A3006 RMK AO2 SLP181 T01060094 $
KSNA 251400Z VRB03KT 7SM OVC011 14/11 A3006 RMK AO2 T01390111
KSNS 251353Z 13003KT 7SM OVC010 12/09 A3007 RMK AO2 SLP190 T01170089
KSQL 251400Z AUTO 30004KT 10SM OVC013 12/08 A3006 RMK AO2
KSTS 251400Z COR 00000KT 1SM BR OVC002 08/08 A3005 RMK AO2 T00830083
KSVE 251355Z AUTO 29003KT 10SM CLR 04/00 A3017 RMK AO2
KSUU 251358Z AUTO 24014KT 10SM CLR 09/07 A2999 RMK AO2 SLP162 T00860066 $
KTOA 251347Z 00000KT 4SM BR FEW009 BKN015 13/10 A3006
KTRK 251345Z 00000KT 10SM VCFG SKC 00/00 A3023
KTRM 251352Z AUTO 31006KT 10SM CLR 24/M01 A2988 RMK AO2 SLP122 T02441006
KTSP 251355Z AUTO 04003KT 10SM CLR 08/03 A3013 RMK AO2
KTVL 251353Z AUTO 17003KT 10SM CLR 00/M01 A3023 RMK AO2 SLP215 T00001011
KUKI 251356Z AUTO 00000KT 9SM CLR 08/06 A3004 RMK AO2 SLP168 T00780061
KVBG 251355Z 00000KT 2SM BR OVC003 10/09 A3006 RMK AO2A SLP183 T00950091
     FIRST
KVCB 251353Z AUTO 23005KT 10SM CLR 10/07 A3001 RMK AO2 SLP162 T01000072
KVCV 251345Z 15005KT 10SM SKC 14/M03 A3005
KVIS 251356Z AUTO 00000KT 10SM CLR 13/11 A3000 RMK AO2 SLP163 T01330111
KVNY 251351Z 00000KT 2 1/2SM BR OVC006 12/11 A3005 RMK AO2 SLP169
     T01170106
KWJF 251356Z 28010KT 10SM CLR 17/M09 A3005 RMK AO2 SLP162 T01671094
KWVI 251353Z AUTO 23003KT 6SM BR OVC007 10/09 A3007 RMK AO2 SLP183
     T01000089